Time;durP1;ratioP1;P1;durP2;ratioP2;P2;SDS_P1;SDS_P2;PMS_P1;PMS_P2;Temp;Humidity;BMP_temperature;BMP_pressure;BME280_temperature;BME280_humidity;BME280_pressure;Samples;Min_cycle;Max_cycle;Signal;HPM_P1;HPM_P2
2022/03/07 00:02:10;;;;;;;18.43;16.60;;;;;;;;;;6236162;28;20631;-71
2022/03/07 00:05:31;;;;;;;18.87;17.37;;;;;;;;;;6237616;28;20330;-72
2022/03/07 00:08:53;;;;;;;16.50;14.90;;;;;;;;;;6226677;28;20229;-69
2022/03/07 00:12:13;;;;;;;17.60;15.90;;;;;;;;;;6232260;28;20217;-71
2022/03/07 00:15:36;;;;;;;18.00;16.37;;;;;;;;;;6230847;28;20367;-72
2022/03/07 00:18:56;;;;;;;19.20;17.23;;;;;;;;;;6226156;28;20556;-72
2022/03/07 00:22:17;;;;;;;18.90;17.00;;;;;;;;;;6227475;28;20322;-70
2022/03/07 00:25:38;;;;;;;18.93;16.93;;;;;;;;;;6236854;28;20240;-71
2022/03/07 00:28:59;;;;;;;18.30;16.23;;;;;;;;;;6230266;28;20278;-70
2022/03/07 00:32:21;;;;;;;19.83;17.93;;;;;;;;;;6234947;28;20519;-70
2022/03/07 00:35:43;;;;;;;18.73;16.80;;;;;;;;;;6222902;28;20236;-71
2022/03/07 00:39:04;;;;;;;19.07;17.17;;;;;;;;;;6236984;28;20323;-71
2022/03/07 00:42:25;;;;;;;18.27;16.47;;;;;;;;;;6232708;28;20301;-71
2022/03/07 00:45:45;;;;;;;18.87;17.17;;;;;;;;;;6217837;28;20625;-71
2022/03/07 00:49:08;;;;;;;18.80;16.87;;;;;;;;;;6219469;28;20804;-70
2022/03/07 00:52:28;;;;;;;19.47;17.47;;;;;;;;;;6228038;28;20588;-71
2022/03/07 00:55:52;;;;;;;18.97;17.03;;;;;;;;;;6219072;28;20783;-71
2022/03/07 00:59:13;;;;;;;19.40;17.50;;;;;;;;;;6231057;28;20232;-72
2022/03/07 01:02:35;;;;;;;17.03;15.53;;;;;;;;;;6212274;28;20217;-71
2022/03/07 01:05:57;;;;;;;19.73;17.83;;;;;;;;;;6234185;28;20228;-71
2022/03/07 01:09:20;;;;;;;20.20;18.30;;;;;;;;;;6232558;28;20224;-71
2022/03/07 01:12:41;;;;;;;18.70;16.83;;;;;;;;;;6236817;28;20228;-71
2022/03/07 01:16:02;;;;;;;17.57;16.07;;;;;;;;;;6219651;28;20228;-71
2022/03/07 01:19:23;;;;;;;20.63;18.73;;;;;;;;;;6235961;28;20233;-71
2022/03/07 01:22:45;;;;;;;18.67;16.80;;;;;;;;;;6219581;28;20236;-71
2022/03/07 01:26:08;;;;;;;17.80;16.10;;;;;;;;;;6233437;28;20224;-71
2022/03/07 01:29:30;;;;;;;18.87;17.17;;;;;;;;;;6232645;28;20229;-71
2022/03/07 01:32:52;;;;;;;19.17;17.30;;;;;;;;;;6232747;28;20229;-71
2022/03/07 01:36:13;;;;;;;22.07;19.87;;;;;;;;;;6236361;28;20331;-71
2022/03/07 01:39:35;;;;;;;19.97;17.97;;;;;;;;;;6229900;28;20232;-71
2022/03/07 01:42:56;;;;;;;18.03;16.30;;;;;;;;;;6215445;28;20232;-70
2022/03/07 01:46:17;;;;;;;20.67;18.50;;;;;;;;;;6229411;28;20610;-71
2022/03/07 01:49:38;;;;;;;20.73;18.83;;;;;;;;;;6217254;28;20236;-71
2022/03/07 01:52:59;;;;;;;19.37;17.57;;;;;;;;;;6221213;28;20228;-71
2022/03/07 01:56:23;;;;;;;20.37;18.37;;;;;;;;;;6222512;28;20229;-71
2022/03/07 01:59:43;;;;;;;19.20;17.27;;;;;;;;;;6223504;28;20224;-71
2022/03/07 02:03:06;;;;;;;20.20;18.30;;;;;;;;;;6218329;28;20224;-70
2022/03/07 02:06:32;;;;;;;18.03;16.13;;;;;;;;;;6224486;28;20225;-72
2022/03/07 02:09:57;;;;;;;20.00;17.97;;;;;;;;;;6217476;28;20232;-71
2022/03/07 02:13:21;;;;;;;20.10;18.10;;;;;;;;;;6230851;28;20256;-70
2022/03/07 02:16:48;;;;;;;20.13;18.13;;;;;;;;;;6228577;28;20264;-72
2022/03/07 02:20:10;;;;;;;20.23;18.30;;;;;;;;;;6228403;28;20228;-72
2022/03/07 02:23:33;;;;;;;20.23;18.33;;;;;;;;;;6225677;28;20260;-71
2022/03/07 02:26:58;;;;;;;20.07;17.97;;;;;;;;;;6213539;28;20601;-71
2022/03/07 02:30:20;;;;;;;20.17;18.27;;;;;;;;;;6232390;28;20236;-70
2022/03/07 02:33:41;;;;;;;18.63;16.73;;;;;;;;;;6225007;28;20228;-71
2022/03/07 02:37:03;;;;;;;20.57;18.37;;;;;;;;;;6216984;28;20271;-70
2022/03/07 02:40:35;;;;;;;19.20;17.50;;;;;;;;;;6236263;28;20232;-71
2022/03/07 02:43:58;;;;;;;19.53;17.67;;;;;;;;;;6222739;28;20224;-71
2022/03/07 02:47:19;;;;;;;19.47;17.23;;;;;;;;;;6236840;28;20228;-71
2022/03/07 02:50:40;;;;;;;19.23;17.53;;;;;;;;;;6220434;28;20252;-71
2022/03/07 02:54:01;;;;;;;20.50;18.53;;;;;;;;;;6224840;28;20221;-70
2022/03/07 02:57:26;;;;;;;18.77;16.97;;;;;;;;;;6226225;28;20232;-71
2022/03/07 03:00:47;;;;;;;19.03;17.17;;;;;;;;;;6238268;28;20622;-70
2022/03/07 03:04:08;;;;;;;19.27;17.23;;;;;;;;;;6240068;28;20228;-71
2022/03/07 03:07:29;;;;;;;19.07;17.03;;;;;;;;;;6236636;28;20236;-71
2022/03/07 03:10:50;;;;;;;19.97;18.07;;;;;;;;;;6236639;28;20225;-70
2022/03/07 03:14:12;;;;;;;20.10;17.90;;;;;;;;;;6240132;28;20327;-71
2022/03/07 03:17:35;;;;;;;23.07;20.73;;;;;;;;;;6236227;28;20225;-71
2022/03/07 03:20:55;;;;;;;18.23;16.53;;;;;;;;;;6241731;28;20227;-69
2022/03/07 03:24:17;;;;;;;18.17;16.43;;;;;;;;;;6237242;28;20232;-71
2022/03/07 03:27:38;;;;;;;21.17;18.43;;;;;;;;;;6225018;28;20244;-70
2022/03/07 03:31:00;;;;;;;19.20;17.40;;;;;;;;;;6235487;28;20229;-69
2022/03/07 03:34:22;;;;;;;20.13;18.23;;;;;;;;;;6238886;28;20232;-70
2022/03/07 03:37:46;;;;;;;19.23;17.23;;;;;;;;;;6236626;28;20610;-70
2022/03/07 03:41:07;;;;;;;20.00;17.90;;;;;;;;;;6239242;28;20237;-71
2022/03/07 03:44:27;;;;;;;17.87;16.27;;;;;;;;;;6222118;28;20609;-71
2022/03/07 03:47:49;;;;;;;18.57;16.67;;;;;;;;;;6230754;28;20263;-70
2022/03/07 03:51:10;;;;;;;19.47;17.40;;;;;;;;;;6231154;28;20256;-69
2022/03/07 03:54:31;;;;;;;18.30;16.47;;;;;;;;;;6225177;28;20332;-70
2022/03/07 03:57:51;;;;;;;20.03;17.57;;;;;;;;;;6233053;28;20224;-73
2022/03/07 04:01:12;;;;;;;20.17;18.27;;;;;;;;;;6233035;28;20228;-70
2022/03/07 04:04:35;;;;;;;19.73;17.80;;;;;;;;;;6237233;28;20598;-72
2022/03/07 04:07:55;;;;;;;19.27;17.27;;;;;;;;;;6236992;28;20319;-71
2022/03/07 04:11:16;;;;;;;18.50;16.67;;;;;;;;;;6235306;28;20240;-70
2022/03/07 04:14:37;;;;;;;20.83;18.63;;;;;;;;;;6234522;28;20233;-70
2022/03/07 04:17:58;;;;;;;20.07;18.10;;;;;;;;;;6236806;28;20624;-71
2022/03/07 04:21:20;;;;;;;18.63;16.87;;;;;;;;;;6231452;28;20229;-72
2022/03/07 04:24:41;;;;;;;20.00;18.03;;;;;;;;;;6236672;28;20649;-71
2022/03/07 04:28:02;;;;;;;20.17;17.77;;;;;;;;;;6236218;28;20228;-71
2022/03/07 04:31:23;;;;;;;18.53;16.83;;;;;;;;;;6231525;28;20236;-71
2022/03/07 04:34:43;;;;;;;19.37;17.47;;;;;;;;;;6239288;28;20221;-71
2022/03/07 04:38:06;;;;;;;20.03;18.13;;;;;;;;;;6229759;28;20598;-70
2022/03/07 04:41:27;;;;;;;18.80;17.00;;;;;;;;;;6230426;28;20232;-71
2022/03/07 04:44:48;;;;;;;17.10;15.33;;;;;;;;;;6234730;28;20229;-70
2022/03/07 04:48:08;;;;;;;17.37;15.60;;;;;;;;;;6234354;28;20645;-70
2022/03/07 04:51:30;;;;;;;17.60;15.90;;;;;;;;;;6235924;28;20232;-70
2022/03/07 04:54:53;;;;;;;16.87;15.37;;;;;;;;;;6231476;28;20220;-70
2022/03/07 04:58:14;;;;;;;16.83;15.23;;;;;;;;;;6236957;28;20311;-72
2022/03/07 05:01:35;;;;;;;17.60;16.00;;;;;;;;;;6233760;28;20576;-70
2022/03/07 05:04:56;;;;;;;16.50;14.93;;;;;;;;;;6236615;28;20252;-70
2022/03/07 05:08:19;;;;;;;17.57;15.87;;;;;;;;;;6235200;28;20510;-71
2022/03/07 05:11:41;;;;;;;18.43;16.53;;;;;;;;;;6235105;28;20606;-70
2022/03/07 05:15:02;;;;;;;18.20;16.40;;;;;;;;;;6236145;28;20520;-70
2022/03/07 05:18:23;;;;;;;17.50;15.67;;;;;;;;;;6234306;28;20549;-71
2022/03/07 05:21:44;;;;;;;18.87;15.50;;;;;;;;;;6228301;28;20248;-70
2022/03/07 05:25:06;;;;;;;15.90;14.50;;;;;;;;;;6232579;28;20225;-71
2022/03/07 05:28:28;;;;;;;18.50;16.60;;;;;;;;;;6234051;28;20225;-70
2022/03/07 05:31:49;;;;;;;18.00;16.07;;;;;;;;;;6223914;28;20240;-71
2022/03/07 05:35:10;;;;;;;17.03;15.33;;;;;;;;;;6234080;28;20225;-71
2022/03/07 05:38:31;;;;;;;17.13;15.33;;;;;;;;;;6234930;28;20232;-69
2022/03/07 05:41:51;;;;;;;18.80;16.27;;;;;;;;;;6233824;28;20245;-71
2022/03/07 05:45:15;;;;;;;16.33;14.73;;;;;;;;;;6240247;28;20228;-71
2022/03/07 05:48:36;;;;;;;16.37;14.77;;;;;;;;;;6237584;28;20229;-70
2022/03/07 05:51:56;;;;;;;17.83;16.13;;;;;;;;;;6239237;28;20311;-71
2022/03/07 05:55:17;;;;;;;17.43;15.80;;;;;;;;;;6238566;28;20240;-71
2022/03/07 05:58:40;;;;;;;15.30;13.80;;;;;;;;;;6242047;28;20232;-71
2022/03/07 06:02:03;;;;;;;14.13;12.73;;;;;;;;;;6237972;28;20228;-70
2022/03/07 06:05:24;;;;;;;14.93;13.47;;;;;;;;;;6221190;28;20233;-70
2022/03/07 06:08:45;;;;;;;16.03;14.53;;;;;;;;;;6238603;28;20228;-70
2022/03/07 06:12:07;;;;;;;15.77;14.20;;;;;;;;;;6239693;28;20228;-70
2022/03/07 06:15:27;;;;;;;15.13;13.77;;;;;;;;;;6237367;28;20327;-70
2022/03/07 06:18:49;;;;;;;15.23;13.83;;;;;;;;;;6239343;28;20235;-70
2022/03/07 06:22:10;;;;;;;14.57;13.20;;;;;;;;;;6229797;28;20225;-70
2022/03/07 06:25:33;;;;;;;16.33;14.67;;;;;;;;;;6238564;28;20248;-70
2022/03/07 06:28:54;;;;;;;14.93;13.53;;;;;;;;;;6225635;28;20266;-69
2022/03/07 06:32:15;;;;;;;17.13;14.03;;;;;;;;;;6223567;28;20240;-70
2022/03/07 06:35:37;;;;;;;14.00;12.70;;;;;;;;;;6223771;28;20767;-71
2022/03/07 06:38:58;;;;;;;16.33;14.83;;;;;;;;;;6233866;28;20688;-69
2022/03/07 06:42:19;;;;;;;15.70;14.40;;;;;;;;;;6235231;28;20653;-69
2022/03/07 06:45:40;;;;;;;16.30;14.63;;;;;;;;;;6231654;28;20490;-70
2022/03/07 06:49:01;;;;;;;15.30;13.53;;;;;;;;;;6234939;28;20248;-69
2022/03/07 06:52:24;;;;;;;15.60;13.97;;;;;;;;;;6238552;28;20252;-69
2022/03/07 06:55:45;;;;;;;15.00;13.57;;;;;;;;;;6227679;28;20312;-68
2022/03/07 06:59:05;;;;;;;16.37;14.37;;;;;;;;;;6226996;28;20221;-68
2022/03/07 07:02:26;;;;;;;17.37;15.73;;;;;;;;;;6233689;28;20237;-68
2022/03/07 07:05:47;;;;;;;16.20;14.13;;;;;;;;;;6237203;28;20220;-68
2022/03/07 07:09:09;;;;;;;15.07;13.40;;;;;;;;;;6238873;28;20224;-69
2022/03/07 07:12:30;;;;;;;14.63;13.40;;;;;;;;;;6233985;28;20228;-69
2022/03/07 07:15:55;;;;;;;14.90;13.33;;;;;;;;;;6235184;28;21569;-68
2022/03/07 07:19:15;;;;;;;15.27;13.93;;;;;;;;;;6222378;28;20496;-69
2022/03/07 07:22:36;;;;;;;16.40;15.00;;;;;;;;;;6236840;28;20251;-69
2022/03/07 07:25:58;;;;;;;14.20;12.80;;;;;;;;;;6209278;28;20245;-69
2022/03/07 07:29:19;;;;;;;15.87;14.27;;;;;;;;;;6225550;28;20216;-69
2022/03/07 07:32:40;;;;;;;15.47;14.07;;;;;;;;;;6232856;28;21106;-69
2022/03/07 07:36:01;;;;;;;15.67;14.17;;;;;;;;;;6232816;28;20234;-70
2022/03/07 07:39:22;;;;;;;16.57;13.87;;;;;;;;;;6233205;28;20402;-70
2022/03/07 07:42:44;;;;;;;16.83;15.07;;;;;;;;;;6226224;28;20231;-69
2022/03/07 07:46:05;;;;;;;14.93;13.40;;;;;;;;;;6225627;28;20711;-70
2022/03/07 07:49:26;;;;;;;15.13;12.93;;;;;;;;;;6220460;28;20228;-68
2022/03/07 07:52:47;;;;;;;13.33;12.17;;;;;;;;;;6229376;28;20236;-68
2022/03/07 07:56:09;;;;;;;11.80;10.70;;;;;;;;;;6230729;28;20609;-72
2022/03/07 07:59:31;;;;;;;14.17;12.83;;;;;;;;;;6226806;28;20236;-68
2022/03/07 08:02:53;;;;;;;12.47;11.27;;;;;;;;;;6220790;28;20339;-71
2022/03/07 08:06:14;;;;;;;13.57;12.27;;;;;;;;;;6224036;28;20240;-67
2022/03/07 08:09:35;;;;;;;11.70;10.63;;;;;;;;;;6228647;28;20531;-68
2022/03/07 08:12:56;;;;;;;11.70;10.67;;;;;;;;;;6229280;28;20232;-68
2022/03/07 08:16:18;;;;;;;10.87;9.83;;;;;;;;;;6225070;28;20918;-69
2022/03/07 08:19:39;;;;;;;11.00;9.83;;;;;;;;;;6228047;28;20228;-68
2022/03/07 08:23:00;;;;;;;10.43;9.43;;;;;;;;;;6222515;28;20241;-69
2022/03/07 08:26:20;;;;;;;11.03;10.03;;;;;;;;;;6221636;28;20626;-70
2022/03/07 08:29:41;;;;;;;10.80;9.87;;;;;;;;;;6232958;28;20308;-69
2022/03/07 08:33:04;;;;;;;10.67;9.57;;;;;;;;;;6233433;28;20236;-68
2022/03/07 08:36:24;;;;;;;11.10;9.80;;;;;;;;;;6226093;28;20224;-69
2022/03/07 08:39:45;;;;;;;10.87;9.83;;;;;;;;;;6229117;28;20233;-68
2022/03/07 08:43:06;;;;;;;10.93;9.83;;;;;;;;;;6215249;28;20797;-68
2022/03/07 08:46:27;;;;;;;11.33;10.23;;;;;;;;;;6208814;28;20618;-68
2022/03/07 08:49:49;;;;;;;10.97;9.63;;;;;;;;;;6218749;28;20220;-68
2022/03/07 08:53:10;;;;;;;23.43;21.20;;;;;;;;;;6228211;28;20225;-68
2022/03/07 08:56:31;;;;;;;18.47;16.50;;;;;;;;;;6227995;28;20771;-70
2022/03/07 08:59:52;;;;;;;10.93;9.87;;;;;;;;;;6224698;28;20475;-69
2022/03/07 09:03:12;;;;;;;7.60;6.87;;;;;;;;;;6221669;28;20618;-70
2022/03/07 09:06:35;;;;;;;8.47;7.20;;;;;;;;;;6216139;28;20259;-69
2022/03/07 09:09:55;;;;;;;8.83;6.97;;;;;;;;;;6222782;28;20615;-71
2022/03/07 09:13:16;;;;;;;6.57;5.90;;;;;;;;;;6226366;28;20259;-71
2022/03/07 09:16:37;;;;;;;7.83;7.03;;;;;;;;;;6226693;28;20231;-71
2022/03/07 09:19:58;;;;;;;5.50;5.10;;;;;;;;;;6213048;28;20236;-69
2022/03/07 09:23:20;;;;;;;8.07;5.97;;;;;;;;;;6231846;28;20236;-68
2022/03/07 09:26:42;;;;;;;7.40;6.70;;;;;;;;;;6233262;28;20248;-69
2022/03/07 09:30:03;;;;;;;7.33;6.67;;;;;;;;;;6232155;28;20228;-70
2022/03/07 09:33:25;;;;;;;6.30;5.70;;;;;;;;;;6235074;28;20319;-70
2022/03/07 09:36:45;;;;;;;5.27;4.77;;;;;;;;;;6233686;28;20263;-71
2022/03/07 09:40:09;;;;;;;10.20;5.67;;;;;;;;;;6236519;28;20239;-68
2022/03/07 09:43:30;;;;;;;5.03;4.60;;;;;;;;;;6231267;28;20243;-72
2022/03/07 09:46:51;;;;;;;4.67;4.23;;;;;;;;;;6228949;28;20501;-71
2022/03/07 09:50:12;;;;;;;5.17;4.47;;;;;;;;;;6231916;28;20232;-70
2022/03/07 09:53:33;;;;;;;5.63;3.77;;;;;;;;;;6228306;28;20220;-68
2022/03/07 09:56:56;;;;;;;5.10;4.23;;;;;;;;;;6218656;28;20218;-70
2022/03/07 10:00:19;;;;;;;4.90;4.03;;;;;;;;;;6227524;28;20295;-70
2022/03/07 10:03:40;;;;;;;3.83;3.30;;;;;;;;;;6226862;28;20481;-71
2022/03/07 10:07:02;;;;;;;4.43;4.07;;;;;;;;;;6226058;28;20800;-68
2022/03/07 10:10:28;;;;;;;4.93;4.47;;;;;;;;;;6227609;28;20224;-72
2022/03/07 10:13:52;;;;;;;4.63;4.00;;;;;;;;;;6230210;28;20569;-70
2022/03/07 10:17:18;;;;;;;5.03;3.90;;;;;;;;;;6227441;28;20220;-73
2022/03/07 10:20:48;;;;;;;3.80;3.50;;;;;;;;;;6229264;28;20229;-71
2022/03/07 10:24:09;;;;;;;3.30;3.00;;;;;;;;;;6228601;28;20650;-70
2022/03/07 10:27:33;;;;;;;3.37;3.07;;;;;;;;;;6226586;28;20232;-70
2022/03/07 10:30:55;;;;;;;4.38;3.97;;;;;;;;;;6224460;28;20351;-70
2022/03/07 10:34:16;;;;;;;4.05;3.67;;;;;;;;;;6225057;28;20228;-70
2022/03/07 10:37:39;;;;;;;3.17;2.92;;;;;;;;;;6229187;28;20251;-70
2022/03/07 10:41:00;;;;;;;2.90;2.70;;;;;;;;;;6231220;28;20237;-73
2022/03/07 10:44:27;;;;;;;3.15;2.70;;;;;;;;;;6231883;28;20232;-71
2022/03/07 10:47:54;;;;;;;4.07;2.40;;;;;;;;;;6229555;28;20228;-69
2022/03/07 10:51:17;;;;;;;2.60;2.40;;;;;;;;;;6215581;28;20236;-72
2022/03/07 10:54:38;;;;;;;3.08;2.78;;;;;;;;;;6229943;28;20240;-69
2022/03/07 10:58:07;;;;;;;2.85;2.22;;;;;;;;;;6225823;28;21546;-71
2022/03/07 11:01:29;;;;;;;2.63;1.75;;;;;;;;;;6230637;28;20685;-69
2022/03/07 11:04:53;;;;;;;1.30;1.20;;;;;;;;;;6221981;28;20225;-71
2022/03/07 11:08:15;;;;;;;2.28;1.52;;;;;;;;;;6204482;28;20232;-70
2022/03/07 11:11:36;;;;;;;26.92;24.65;;;;;;;;;;6219578;28;20278;-69
2022/03/07 11:14:58;;;;;;;6.60;6.00;;;;;;;;;;6228046;28;20712;-69
2022/03/07 11:18:20;;;;;;;3.45;3.03;;;;;;;;;;6227183;28;20741;-69
2022/03/07 11:21:42;;;;;;;2.17;2.08;;;;;;;;;;6228236;28;20311;-69
2022/03/07 11:25:05;;;;;;;1.73;1.63;;;;;;;;;;6225329;28;20323;-69
2022/03/07 11:28:27;;;;;;;14.75;13.43;;;;;;;;;;6225070;28;20221;-69
2022/03/07 11:31:48;;;;;;;1.35;1.25;;;;;;;;;;6225686;28;20907;-70
2022/03/07 11:35:09;;;;;;;1.67;1.02;;;;;;;;;;6228003;28;20224;-71
2022/03/07 11:38:31;;;;;;;1.30;1.10;;;;;;;;;;6229258;28;20329;-69
2022/03/07 11:41:52;;;;;;;3.03;0.98;;;;;;;;;;6226604;28;20514;-69
2022/03/07 11:45:18;;;;;;;1.02;0.93;;;;;;;;;;6221229;28;21876;-69
2022/03/07 11:48:47;;;;;;;0.90;0.70;;;;;;;;;;6219248;28;20232;-72
2022/03/07 11:52:09;;;;;;;1.08;0.90;;;;;;;;;;6218695;28;20232;-72
2022/03/07 11:55:31;;;;;;;0.88;0.85;;;;;;;;;;6219027;28;20224;-70
2022/03/07 11:58:53;;;;;;;0.82;0.77;;;;;;;;;;6230805;28;20261;-70
2022/03/07 12:02:14;;;;;;;3.08;1.40;;;;;;;;;;6229851;28;20307;-72
2022/03/07 12:05:35;;;;;;;1.33;1.23;;;;;;;;;;6228963;28;20260;-72
2022/03/07 12:08:57;;;;;;;0.95;0.95;;;;;;;;;;6224989;28;20232;-70
2022/03/07 12:12:21;;;;;;;0.93;0.73;;;;;;;;;;6230462;28;20323;-70
2022/03/07 12:15:44;;;;;;;0.93;0.65;;;;;;;;;;6228709;28;20248;-73
2022/03/07 12:19:09;;;;;;;0.90;0.85;;;;;;;;;;6237133;28;20236;-72
2022/03/07 12:22:31;;;;;;;1.70;1.60;;;;;;;;;;6237503;28;20232;-73
2022/03/07 12:26:00;;;;;;;3.22;1.85;;;;;;;;;;6236063;28;20522;-69
2022/03/07 12:29:24;;;;;;;2.15;1.52;;;;;;;;;;6230572;28;20228;-71
2022/03/07 12:32:45;;;;;;;2.40;1.73;;;;;;;;;;6228140;28;20252;-69
2022/03/07 12:36:09;;;;;;;1.52;1.40;;;;;;;;;;6236354;28;20718;-70
2022/03/07 12:39:31;;;;;;;1.73;1.63;;;;;;;;;;6234266;28;20784;-72
2022/03/07 12:42:52;;;;;;;2.45;1.42;;;;;;;;;;6227584;28;20232;-68
2022/03/07 12:46:15;;;;;;;1.23;1.13;;;;;;;;;;6231705;28;20526;-65
2022/03/07 12:49:36;;;;;;;1.88;1.77;;;;;;;;;;6237670;28;20236;-68
2022/03/07 12:52:57;;;;;;;1.50;1.15;;;;;;;;;;6237424;28;20236;-68
2022/03/07 12:56:19;;;;;;;1.35;1.23;;;;;;;;;;6226703;28;20225;-67
2022/03/07 12:59:39;;;;;;;1.00;0.90;;;;;;;;;;6231306;28;20232;-69
2022/03/07 13:03:04;;;;;;;2.25;1.50;;;;;;;;;;6224168;28;20315;-71
2022/03/07 13:06:26;;;;;;;1.98;1.17;;;;;;;;;;6226271;28;20244;-69
2022/03/07 13:09:47;;;;;;;3.13;1.85;;;;;;;;;;6233867;28;20229;-68
2022/03/07 13:13:08;;;;;;;2.13;1.42;;;;;;;;;;6232852;28;20229;-67
2022/03/07 13:16:30;;;;;;;1.70;1.58;;;;;;;;;;6226172;28;20251;-70
2022/03/07 13:19:54;;;;;;;1.63;1.52;;;;;;;;;;6225816;28;20227;-71
2022/03/07 13:23:14;;;;;;;3.75;1.67;;;;;;;;;;6234407;28;20611;-71
2022/03/07 13:26:36;;;;;;;1.67;1.20;;;;;;;;;;6232271;28;20236;-69
2022/03/07 13:30:06;;;;;;;1.83;1.73;;;;;;;;;;6229458;28;20229;-68
2022/03/07 13:33:34;;;;;;;2.50;1.52;;;;;;;;;;6229796;28;20228;-70
2022/03/07 13:36:57;;;;;;;2.15;1.83;;;;;;;;;;6235837;28;20221;-69
2022/03/07 13:40:21;;;;;;;1.92;1.80;;;;;;;;;;6228863;28;20790;-72
2022/03/07 13:43:42;;;;;;;2.28;2.10;;;;;;;;;;6213361;28;20502;-70
2022/03/07 13:47:04;;;;;;;2.10;1.88;;;;;;;;;;6227762;28;20534;-71
2022/03/07 13:50:26;;;;;;;1.67;1.25;;;;;;;;;;6229605;28;20263;-73
2022/03/07 13:53:58;;;;;;;1.42;1.33;;;;;;;;;;6229334;28;20501;-70
2022/03/07 13:57:19;;;;;;;1.15;0.98;;;;;;;;;;6226983;28;20466;-74
2022/03/07 14:00:40;;;;;;;1.75;1.20;;;;;;;;;;6235410;28;20241;-75
2022/03/07 14:04:10;;;;;;;0.90;0.90;;;;;;;;;;6223027;28;20445;-73
2022/03/07 14:07:32;;;;;;;1.40;1.30;;;;;;;;;;6233339;28;20240;-72
2022/03/07 14:10:59;;;;;;;1.98;1.38;;;;;;;;;;6236336;28;20533;-72
2022/03/07 14:14:20;;;;;;;3.22;1.58;;;;;;;;;;6232347;28;20985;-73
2022/03/07 14:17:41;;;;;;;2.45;1.38;;;;;;;;;;6213258;28;20240;-70
2022/03/07 14:21:03;;;;;;;3.40;1.38;;;;;;;;;;6234177;28;20244;-72
2022/03/07 14:24:24;;;;;;;1.90;1.17;;;;;;;;;;6236962;28;20236;-72
2022/03/07 14:27:47;;;;;;;8.20;7.40;;;;;;;;;;6237404;28;20220;-74
2022/03/07 14:31:08;;;;;;;5.00;2.38;;;;;;;;;;6235358;28;20228;-71
2022/03/07 14:34:29;;;;;;;15.65;14.32;;;;;;;;;;6236867;28;20217;-71
2022/03/07 14:37:50;;;;;;;13.05;11.98;;;;;;;;;;6230329;28;20228;-71
2022/03/07 14:41:12;;;;;;;3.45;2.88;;;;;;;;;;6231915;28;21184;-72
2022/03/07 14:44:35;;;;;;;2.30;2.10;;;;;;;;;;6238007;28;20232;-71
2022/03/07 14:47:57;;;;;;;1.75;1.65;;;;;;;;;;6222777;28;20236;-75
2022/03/07 14:51:17;;;;;;;2.90;1.95;;;;;;;;;;6229478;28;20232;-71
2022/03/07 14:54:38;;;;;;;4.75;3.47;;;;;;;;;;6232208;28;20232;-68
2022/03/07 14:57:59;;;;;;;6.10;5.60;;;;;;;;;;6235232;28;20232;-72
2022/03/07 15:01:22;;;;;;;6.82;2.55;;;;;;;;;;6229921;28;20244;-69
2022/03/07 15:04:43;;;;;;;3.53;2.17;;;;;;;;;;6233519;28;20225;-69
2022/03/07 15:08:05;;;;;;;3.25;2.92;;;;;;;;;;6228084;28;20684;-69
2022/03/07 15:11:25;;;;;;;2.05;1.85;;;;;;;;;;6224954;28;20232;-69
2022/03/07 15:14:51;;;;;;;2.63;2.15;;;;;;;;;;6222724;28;20610;-69
2022/03/07 15:18:13;;;;;;;2.05;1.88;;;;;;;;;;6222763;28;20670;-72
2022/03/07 15:21:35;;;;;;;3.13;2.22;;;;;;;;;;6221479;28;20307;-72
2022/03/07 15:24:56;;;;;;;2.65;2.45;;;;;;;;;;6221137;28;20806;-70
2022/03/07 15:28:17;;;;;;;2.50;1.83;;;;;;;;;;6232035;28;20233;-70
2022/03/07 15:31:41;;;;;;;2.90;1.90;;;;;;;;;;6235940;28;20248;-70
2022/03/07 15:35:03;;;;;;;7.97;7.28;;;;;;;;;;6232837;28;20249;-68
2022/03/07 15:38:24;;;;;;;17.53;15.73;;;;;;;;;;6229935;28;20561;-71
2022/03/07 15:41:46;;;;;;;20.43;18.30;;;;;;;;;;6234958;28;20220;-70
2022/03/07 15:45:08;;;;;;;25.75;23.15;;;;;;;;;;6233482;28;20229;-72
2022/03/07 15:48:29;;;;;;;6.90;6.20;;;;;;;;;;6231547;28;20610;-71
2022/03/07 15:51:53;;;;;;;11.97;10.70;;;;;;;;;;6233511;28;20228;-71
2022/03/07 15:55:14;;;;;;;9.17;8.27;;;;;;;;;;6233643;28;20321;-70
2022/03/07 15:58:36;;;;;;;7.80;6.03;;;;;;;;;;6237753;28;21772;-71
2022/03/07 16:01:58;;;;;;;9.67;8.60;;;;;;;;;;6236749;28;20661;-71
2022/03/07 16:05:19;;;;;;;3.53;3.00;;;;;;;;;;6233850;28;20232;-71
2022/03/07 16:08:42;;;;;;;7.00;6.27;;;;;;;;;;6234473;28;20232;-72
2022/03/07 16:12:03;;;;;;;9.87;8.80;;;;;;;;;;6232046;28;20236;-71
2022/03/07 16:15:23;;;;;;;8.50;7.63;;;;;;;;;;6226578;28;20237;-71
2022/03/07 16:18:44;;;;;;;9.07;8.17;;;;;;;;;;6235874;28;20228;-72
2022/03/07 16:22:05;;;;;;;10.10;8.80;;;;;;;;;;6236331;28;20232;-71
2022/03/07 16:25:27;;;;;;;16.93;15.33;;;;;;;;;;6237709;28;20248;-72
2022/03/07 16:28:48;;;;;;;2.70;2.50;;;;;;;;;;6229450;28;20799;-71
2022/03/07 16:32:09;;;;;;;4.27;3.07;;;;;;;;;;6230388;28;20255;-71
2022/03/07 16:35:30;;;;;;;2.73;2.53;;;;;;;;;;6235409;28;20742;-72
2022/03/07 16:38:50;;;;;;;7.97;7.03;;;;;;;;;;6225278;28;20602;-71
2022/03/07 16:42:12;;;;;;;20.37;18.27;;;;;;;;;;6226861;28;20228;-72
2022/03/07 16:45:33;;;;;;;9.37;8.47;;;;;;;;;;6228597;28;20228;-71
2022/03/07 16:48:54;;;;;;;5.63;4.97;;;;;;;;;;6231905;28;20228;-71
2022/03/07 16:52:15;;;;;;;9.40;7.90;;;;;;;;;;6231085;28;20266;-72
2022/03/07 16:55:37;;;;;;;10.33;8.23;;;;;;;;;;6226193;28;22016;-71
2022/03/07 16:59:00;;;;;;;10.67;9.53;;;;;;;;;;6233090;28;20658;-72
2022/03/07 17:02:20;;;;;;;12.83;11.53;;;;;;;;;;6229575;28;20228;-71
2022/03/07 17:05:41;;;;;;;20.83;18.53;;;;;;;;;;6232570;28;20304;-72
2022/03/07 17:09:03;;;;;;;6.73;6.13;;;;;;;;;;6232144;28;20224;-71
2022/03/07 17:12:23;;;;;;;4.57;3.60;;;;;;;;;;6227995;28;20237;-72
2022/03/07 17:15:45;;;;;;;3.13;2.83;;;;;;;;;;6225126;28;20532;-71
2022/03/07 17:19:06;;;;;;;29.23;26.33;;;;;;;;;;6227688;28;20236;-72
2022/03/07 17:22:27;;;;;;;23.67;21.37;;;;;;;;;;6223334;28;20327;-71
2022/03/07 17:25:52;;;;;;;25.03;22.57;;;;;;;;;;6226234;28;20230;-71
2022/03/07 17:29:13;;;;;;;10.77;9.67;;;;;;;;;;6225043;28;20320;-71
2022/03/07 17:32:35;;;;;;;12.97;11.67;;;;;;;;;;6224209;28;20820;-71
2022/03/07 17:35:56;;;;;;;15.00;13.07;;;;;;;;;;6224592;28;22005;-73
2022/03/07 17:39:18;;;;;;;10.17;9.10;;;;;;;;;;6227714;28;20232;-72
2022/03/07 17:42:39;;;;;;;4.30;3.50;;;;;;;;;;6226604;28;20610;-72
2022/03/07 17:46:00;;;;;;;6.00;3.80;;;;;;;;;;6228358;28;20225;-72
2022/03/07 17:49:22;;;;;;;5.90;3.80;;;;;;;;;;6235478;28;20511;-72
2022/03/07 17:52:44;;;;;;;35.97;30.63;;;;;;;;;;6234347;28;20228;-72
2022/03/07 17:56:05;;;;;;;14.97;13.27;;;;;;;;;;6234188;28;20228;-74
2022/03/07 17:59:26;;;;;;;14.93;12.70;;;;;;;;;;6223341;28;20248;-72
2022/03/07 18:02:47;;;;;;;21.13;18.90;;;;;;;;;;6234219;28;20610;-73
2022/03/07 18:06:09;;;;;;;19.50;15.27;;;;;;;;;;6229322;28;20228;-72
2022/03/07 18:09:32;;;;;;;23.23;19.87;;;;;;;;;;6233389;28;20228;-73
2022/03/07 18:12:53;;;;;;;30.93;27.57;;;;;;;;;;6235645;28;20233;-73
2022/03/07 18:16:15;;;;;;;30.97;27.60;;;;;;;;;;6229000;28;20248;-70
2022/03/07 18:19:36;;;;;;;15.37;12.10;;;;;;;;;;6237646;28;20229;-71
2022/03/07 18:22:58;;;;;;;7.57;6.10;;;;;;;;;;6221706;28;20670;-73
2022/03/07 18:26:19;;;;;;;37.13;33.37;;;;;;;;;;6234833;28;20229;-75
2022/03/07 18:29:40;;;;;;;30.63;26.63;;;;;;;;;;6232376;28;20228;-73
2022/03/07 18:33:01;;;;;;;15.47;13.87;;;;;;;;;;6232783;28;20237;-74
2022/03/07 18:36:23;;;;;;;9.37;7.57;;;;;;;;;;6233446;28;20241;-74
2022/03/07 18:39:45;;;;;;;8.83;5.20;;;;;;;;;;6228455;28;20232;-73
2022/03/07 18:43:07;;;;;;;12.20;10.83;;;;;;;;;;6232669;28;20228;-72
2022/03/07 18:46:29;;;;;;;9.43;8.00;;;;;;;;;;6226878;28;20248;-73
2022/03/07 18:49:50;;;;;;;24.63;18.30;;;;;;;;;;6234352;28;20229;-74
2022/03/07 18:53:11;;;;;;;19.43;15.33;;;;;;;;;;6227646;28;20232;-71
2022/03/07 18:56:34;;;;;;;14.53;13.00;;;;;;;;;;6232003;28;20224;-72
2022/03/07 18:59:55;;;;;;;32.07;24.60;;;;;;;;;;6238407;28;20307;-70
2022/03/07 19:03:16;;;;;;;12.27;10.33;;;;;;;;;;6238313;28;20617;-73
2022/03/07 19:06:37;;;;;;;16.00;13.37;;;;;;;;;;6215022;28;20531;-70
2022/03/07 19:09:58;;;;;;;28.30;23.60;;;;;;;;;;6230633;28;20237;-77
2022/03/07 19:13:20;;;;;;;43.03;37.70;;;;;;;;;;6240770;28;20248;-76
2022/03/07 19:16:41;;;;;;;42.70;35.67;;;;;;;;;;6223491;28;20318;-77
2022/03/07 19:20:03;;;;;;;23.20;20.70;;;;;;;;;;6235535;28;20224;-72
2022/03/07 19:23:24;;;;;;;18.23;15.13;;;;;;;;;;6236228;28;20323;-72
2022/03/07 19:26:45;;;;;;;19.63;17.47;;;;;;;;;;6237040;28;20236;-71
2022/03/07 19:30:09;;;;;;;18.97;16.90;;;;;;;;;;6238631;28;20224;-72
2022/03/07 19:33:30;;;;;;;8.87;6.87;;;;;;;;;;6237712;28;20228;-72
2022/03/07 19:36:52;;;;;;;7.97;6.53;;;;;;;;;;6236777;28;20232;-72
2022/03/07 19:40:14;;;;;;;6.57;5.50;;;;;;;;;;6239110;28;20248;-70
2022/03/07 19:43:35;;;;;;;7.33;5.83;;;;;;;;;;6236357;28;20252;-70
2022/03/07 19:46:57;;;;;;;6.10;5.23;;;;;;;;;;6233235;28;20236;-71
2022/03/07 19:50:18;;;;;;;7.97;5.50;;;;;;;;;;6237947;28;20240;-70